Time;durP1;ratioP1;P1;durP2;ratioP2;P2;SDS_P1;SDS_P2;PMS_P1;PMS_P2;Temp;Humidity;BMP_temperature;BMP_pressure;BME280_temperature;BME280_humidity;BME280_pressure;Samples;Min_cycle;Max_cycle;Signal;HPM_P1;HPM_P2
2022/12/12 00:01:54;;;;;;;24.20;11.93;;;-1.80;99.90;;;;;;4991980;28;20576;-75
2022/12/12 00:04:20;;;;;;;19.00;11.65;;;-1.80;99.90;;;;;;4992018;28;20189;-75
2022/12/12 00:06:45;;;;;;;17.57;11.27;;;-1.90;99.90;;;;;;4958180;28;20189;-75
2022/12/12 00:09:11;;;;;;;18.30;10.67;;;-1.90;99.90;;;;;;4991716;28;20429;-75
2022/12/12 00:11:37;;;;;;;18.60;11.93;;;-1.80;99.90;;;;;;4958073;28;20220;-75
2022/12/12 00:14:03;;;;;;;22.27;11.27;;;-1.90;99.90;;;;;;4990798;28;20424;-75
2022/12/12 00:16:29;;;;;;;19.25;10.35;;;-1.90;99.90;;;;;;4991774;28;20204;-75
2022/12/12 00:18:55;;;;;;;18.40;10.90;;;-2.00;99.90;;;;;;4991841;28;20182;-75
2022/12/12 00:21:26;;;;;;;18.03;11.00;;;-2.00;99.90;;;;;;4992118;28;20228;-75
2022/12/12 00:23:53;;;;;;;21.48;11.23;;;-2.20;99.90;;;;;;4974593;28;20687;-75
2022/12/12 00:26:31;;;;;;;17.85;11.00;;;-2.20;99.90;;;;;;4991665;28;20273;-75
2022/12/12 00:28:57;;;;;;;17.65;10.70;;;-2.20;99.90;;;;;;4991562;28;20303;-75
2022/12/12 00:31:22;;;;;;;20.13;11.55;;;-2.20;99.90;;;;;;4991330;28;20423;-75
2022/12/12 00:33:49;;;;;;;19.17;12.00;;;-2.20;99.90;;;;;;4991256;28;20518;-75
2022/12/12 00:36:22;;;;;;;17.60;10.27;;;-2.20;99.90;;;;;;4991260;28;20185;-75
2022/12/12 00:38:49;;;;;;;20.83;11.65;;;-2.30;99.90;;;;;;4974158;28;20237;-76
2022/12/12 00:41:15;;;;;;;17.10;10.52;;;-2.40;99.90;;;;;;4973902;28;20217;-76
2022/12/12 00:43:41;;;;;;;18.58;11.43;;;-2.40;99.90;;;;;;4992897;28;20799;-79
2022/12/12 00:46:07;;;;;;;22.88;12.07;;;-2.40;99.90;;;;;;4993525;28;20201;-78
2022/12/12 00:48:34;;;;;;;21.47;11.40;;;-2.40;99.90;;;;;;4992516;28;20178;-78
2022/12/12 00:51:06;;;;;;;20.60;11.10;;;-2.50;99.90;;;;;;4991706;28;20441;-78
2022/12/12 00:53:32;;;;;;;26.10;12.65;;;-2.60;99.90;;;;;;4991588;28;20169;-78
2022/12/12 00:55:58;;;;;;;20.87;11.77;;;-2.70;99.90;;;;;;4973757;28;20193;-78
2022/12/12 00:58:24;;;;;;;21.20;11.67;;;-2.80;99.90;;;;;;4973975;28;20272;-79
2022/12/12 01:00:51;;;;;;;22.85;12.63;;;-2.80;99.90;;;;;;4973574;28;20220;-80
2022/12/12 01:03:16;;;;;;;24.90;13.70;;;-2.80;99.90;;;;;;4957538;28;20193;-78
2022/12/12 01:05:42;;;;;;;21.50;11.77;;;-2.90;99.90;;;;;;4973650;28;20192;-79
2022/12/12 01:08:08;;;;;;;24.10;13.20;;;-2.90;99.90;;;;;;4957553;28;20427;-78
2022/12/12 01:10:33;;;;;;;20.43;12.77;;;-3.00;99.90;;;;;;4991043;28;20188;-78
2022/12/12 01:12:59;;;;;;;20.80;11.10;;;-3.00;99.90;;;;;;4957294;28;20194;-78
2022/12/12 01:15:25;;;;;;;19.73;12.83;;;-3.20;99.90;;;;;;4990754;28;20272;-77
2022/12/12 01:17:51;;;;;;;22.67;11.87;;;-3.20;99.90;;;;;;4973379;28;20189;-78
2022/12/12 01:20:24;;;;;;;22.52;11.07;;;-3.20;99.90;;;;;;4973035;28;20280;-79
2022/12/12 01:22:50;;;;;;;29.40;13.27;;;-3.20;99.90;;;;;;4972756;28;20217;-78
2022/12/12 01:25:16;;;;;;;25.50;14.27;;;-3.30;99.90;;;;;;4990384;28;20192;-78
2022/12/12 01:27:44;;;;;;;30.13;11.85;;;-3.20;99.90;;;;;;4990540;28;20201;-78
2022/12/12 01:30:17;;;;;;;23.50;12.02;;;-3.30;99.90;;;;;;4972872;28;20606;-78
2022/12/12 01:32:43;;;;;;;24.17;12.00;;;-3.50;99.90;;;;;;4989925;28;20708;-77
2022/12/12 01:35:10;;;;;;;21.65;11.57;;;-3.50;99.90;;;;;;4989771;28;20186;-78
2022/12/12 01:37:37;;;;;;;23.15;12.15;;;-3.60;99.90;;;;;;4990014;28;20828;-77
2022/12/12 01:40:06;;;;;;;28.98;13.23;;;-3.60;99.90;;;;;;4989780;28;20186;-76
2022/12/12 01:42:32;;;;;;;23.00;12.00;;;-3.60;99.90;;;;;;4989453;28;20273;-77
2022/12/12 01:44:58;;;;;;;27.83;12.80;;;-3.70;99.90;;;;;;4972288;28;20182;-77
2022/12/12 01:47:24;;;;;;;26.23;11.60;;;-3.60;99.90;;;;;;4989488;28;20417;-78
2022/12/12 01:50:13;;;;;;;23.05;11.50;;;-3.60;99.90;;;;;;4955928;28;20432;-78
2022/12/12 01:52:47;;;;;;;24.40;12.88;;;-3.70;99.90;;;;;;4971430;28;20697;-79
2022/12/12 01:55:21;;;;;;;22.30;11.20;;;-3.90;99.90;;;;;;4989616;28;20239;-78
2022/12/12 01:57:51;;;;;;;19.17;10.90;;;-3.90;99.90;;;;;;4972044;28;20267;-78
2022/12/12 02:00:17;;;;;;;18.35;10.70;;;-4.00;99.90;;;;;;4971823;28;20188;-77
2022/12/12 02:02:45;;;;;;;19.30;9.40;;;-4.00;99.90;;;;;;4972067;28;20214;-78
2022/12/12 02:05:45;;;;;;;20.15;11.00;;;-4.10;99.90;;;;;;4989593;28;20188;-78
2022/12/12 02:08:12;;;;;;;17.90;10.32;;;-4.00;99.90;;;;;;4971672;28;20193;-77
2022/12/12 02:10:38;;;;;;;16.08;9.65;;;-4.00;99.90;;;;;;4971632;28;20189;-78
2022/12/12 02:13:10;;;;;;;24.33;11.43;;;-4.00;99.90;;;;;;4989552;28;20194;-78
2022/12/12 02:15:58;;;;;;;19.40;10.55;;;-4.10;99.90;;;;;;4989301;28;20177;-77
2022/12/12 02:18:42;;;;;;;21.73;11.55;;;-4.20;99.90;;;;;;4989288;28;20192;-77
2022/12/12 02:21:36;;;;;;;15.38;9.55;;;-4.20;99.90;;;;;;4971739;28;20630;-78
2022/12/12 02:24:32;;;;;;;18.23;10.10;;;-4.30;99.90;;;;;;4989363;28;20617;-77
2022/12/12 02:27:40;;;;;;;18.55;10.65;;;-4.40;99.90;;;;;;4989235;28;20181;-76
2022/12/12 02:30:14;;;;;;;24.35;10.90;;;-4.40;99.90;;;;;;4963886;28;20200;-77
2022/12/12 02:32:51;;;;;;;17.38;9.82;;;-4.30;99.90;;;;;;4972929;28;20217;-79
2022/12/12 02:35:38;;;;;;;17.13;10.00;;;-4.30;99.90;;;;;;4972047;28;20192;-78
2022/12/12 02:38:16;;;;;;;22.52;10.02;;;-4.30;99.90;;;;;;4991190;28;20240;-79
2022/12/12 02:40:55;;;;;;;20.42;10.55;;;-4.30;99.90;;;;;;4993273;28;20181;-79
2022/12/12 02:43:55;;;;;;;20.90;10.00;;;-4.30;99.90;;;;;;4993320;28;20216;-78
2022/12/12 02:46:45;;;;;;;19.70;10.70;;;-4.40;99.90;;;;;;4975896;28;20190;-78
2022/12/12 02:49:21;;;;;;;17.40;10.15;;;-4.40;99.90;;;;;;4993115;28;20209;-79
2022/12/12 02:51:49;;;;;;;23.42;11.90;;;-4.50;99.90;;;;;;4975824;28;20209;-77
2022/12/12 02:54:18;;;;;;;18.27;10.55;;;-4.50;99.90;;;;;;4975274;28;20196;-77
2022/12/12 02:56:45;;;;;;;17.70;9.98;;;-4.50;99.90;;;;;;4992664;28;20186;-79
2022/12/12 02:59:20;;;;;;;18.00;10.85;;;-4.40;99.90;;;;;;4993016;28;20179;-79
2022/12/12 03:01:59;;;;;;;21.50;11.30;;;-4.40;99.90;;;;;;4992650;28;20284;-77
2022/12/12 03:08:07;;;;;;;17.35;8.77;;;-4.40;99.90;;;;;;4992797;28;20180;-78
2022/12/12 03:10:54;;;;;;;15.70;9.35;;;-4.50;99.90;;;;;;4948368;28;20382;-79
2022/12/12 03:13:47;;;;;;;19.77;10.23;;;-4.50;99.90;;;;;;4975061;28;20248;-78
2022/12/12 03:16:37;;;;;;;19.85;11.15;;;-4.60;99.90;;;;;;4992765;28;20862;-78
2022/12/12 03:19:08;;;;;;;22.08;9.73;;;-4.80;99.90;;;;;;4992776;28;20530;-78
2022/12/12 03:22:06;;;;;;;23.48;10.80;;;-4.80;99.90;;;;;;4992424;28;20209;-79
2022/12/12 03:24:39;;;;;;;17.92;10.27;;;-5.00;99.90;;;;;;4984471;28;20573;-78
2022/12/12 03:27:29;;;;;;;22.27;11.27;;;-4.90;99.90;;;;;;4992530;28;20162;-76
2022/12/12 03:30:04;;;;;;;17.33;10.10;;;-4.80;99.90;;;;;;4992583;28;20172;-76
2022/12/12 03:32:53;;;;;;;17.23;10.32;;;-4.80;99.90;;;;;;4974545;28;20793;-76
2022/12/12 03:35:27;;;;;;;19.08;10.65;;;-4.60;99.90;;;;;;4973845;28;20201;-75
2022/12/12 03:38:21;;;;;;;18.92;10.35;;;-4.50;99.90;;;;;;4992436;28;20188;-75
2022/12/12 03:40:54;;;;;;;23.88;11.73;;;-4.40;99.90;;;;;;4989150;28;20224;-75
2022/12/12 03:43:30;;;;;;;23.15;10.90;;;-4.30;99.90;;;;;;4992195;28;20562;-76
2022/12/12 03:46:11;;;;;;;20.95;11.68;;;-4.20;99.90;;;;;;4992392;28;20170;-73
2022/12/12 03:48:44;;;;;;;19.83;10.48;;;-4.10;99.90;;;;;;4992363;28;20549;-74
2022/12/12 03:51:38;;;;;;;15.05;9.00;;;-4.00;99.90;;;;;;4992505;28;20743;-75
2022/12/12 03:54:24;;;;;;;16.05;8.80;;;-4.10;99.90;;;;;;4989104;28;20280;-76
2022/12/12 03:57:21;;;;;;;17.08;9.63;;;-4.10;99.90;;;;;;4992313;28;20190;-75
2022/12/12 03:59:53;;;;;;;18.38;10.55;;;-4.20;99.90;;;;;;4991029;28;20276;-75
2022/12/12 04:02:31;;;;;;;19.33;10.40;;;-4.20;99.90;;;;;;4992590;28;20209;-76
2022/12/12 04:05:22;;;;;;;17.67;10.48;;;-4.30;99.90;;;;;;4992294;28;20232;-75
2022/12/12 04:07:59;;;;;;;19.42;10.45;;;-4.20;99.90;;;;;;4985036;28;20280;-76
2022/12/12 04:13:31;;;;;;;16.45;9.32;;;-4.40;99.90;;;;;;4991981;28;20247;-75
2022/12/12 04:16:14;;;;;;;14.07;9.45;;;-4.60;99.90;;;;;;4992161;28;20187;-75
2022/12/12 04:18:50;;;;;;;16.60;9.18;;;-4.70;99.90;;;;;;4975742;28;20193;-74
2022/12/12 04:24:43;;;;;;;18.10;10.32;;;-4.80;99.90;;;;;;4993658;28;20674;-75
2022/12/12 04:27:23;;;;;;;15.73;9.40;;;-4.80;99.90;;;;;;4993537;28;20190;-74
2022/12/12 04:30:05;;;;;;;18.55;10.05;;;-4.90;99.90;;;;;;4993112;28;20189;-73
2022/12/12 04:32:36;;;;;;;20.42;9.65;;;-4.90;99.90;;;;;;4993640;28;20240;-74
2022/12/12 04:35:11;;;;;;;19.15;10.25;;;-5.00;99.90;;;;;;4978114;28;20268;-75
2022/12/12 04:37:52;;;;;;;18.40;11.25;;;-5.00;99.90;;;;;;5001584;28;20204;-75
2022/12/12 04:40:26;;;;;;;19.05;11.60;;;-5.10;99.90;;;;;;4993592;28;20176;-76
2022/12/12 04:43:17;;;;;;;18.73;10.88;;;-5.10;99.90;;;;;;4992245;28;20210;-76
2022/12/12 04:45:48;;;;;;;19.30;10.63;;;-5.00;99.90;;;;;;4973864;28;20708;-76
2022/12/12 04:48:19;;;;;;;18.58;10.18;;;-5.10;99.90;;;;;;4974658;28;20232;-75
2022/12/12 04:50:48;;;;;;;25.20;10.77;;;-5.00;99.90;;;;;;4958052;28;20200;-75
2022/12/12 04:53:16;;;;;;;16.88;9.65;;;-5.00;99.90;;;;;;4973944;28;20189;-76
2022/12/12 04:55:47;;;;;;;21.40;11.50;;;-5.10;99.90;;;;;;4973819;28;20217;-74
2022/12/12 04:58:13;;;;;;;16.33;10.40;;;-5.10;99.90;;;;;;4973620;28;20180;-74
2022/12/12 05:00:48;;;;;;;24.33;10.15;;;-5.00;99.90;;;;;;4990407;28;20220;-75
2022/12/12 05:03:16;;;;;;;17.38;10.20;;;-5.20;99.90;;;;;;4990713;28;20574;-73
2022/12/12 05:05:52;;;;;;;20.85;11.05;;;-5.10;99.90;;;;;;4990841;28;20177;-73
2022/12/12 05:08:43;;;;;;;15.88;9.82;;;-5.20;99.90;;;;;;4990868;28;20181;-74
2022/12/12 05:11:11;;;;;;;16.75;10.38;;;-5.20;99.90;;;;;;4960418;28;20791;-73
2022/12/12 05:13:39;;;;;;;20.40;10.23;;;-5.20;99.90;;;;;;4990795;28;20611;-73
2022/12/12 05:16:27;;;;;;;18.73;10.43;;;-5.20;99.90;;;;;;4990805;28;20240;-73
2022/12/12 05:18:53;;;;;;;23.92;10.43;;;-5.20;99.90;;;;;;4990651;28;20184;-73
2022/12/12 05:21:19;;;;;;;24.17;11.60;;;-5.30;99.90;;;;;;4972396;28;20759;-73
2022/12/12 05:23:45;;;;;;;20.50;11.30;;;-5.50;99.90;;;;;;4989541;28;20999;-73
2022/12/12 05:26:27;;;;;;;21.70;10.83;;;-5.60;99.90;;;;;;4989535;28;20459;-73
2022/12/12 05:28:53;;;;;;;18.08;10.15;;;-5.60;99.90;;;;;;4989371;28;20537;-73
2022/12/12 05:31:19;;;;;;;29.58;14.27;;;-5.50;99.90;;;;;;4989268;28;20648;-73
2022/12/12 05:33:45;;;;;;;18.85;10.80;;;-5.40;99.90;;;;;;4989471;28;20668;-73
2022/12/12 05:36:11;;;;;;;25.60;11.97;;;-5.40;99.90;;;;;;4955744;28;20216;-73
2022/12/12 05:38:37;;;;;;;20.60;11.95;;;-5.30;99.90;;;;;;4989691;28;20193;-73
2022/12/12 05:41:03;;;;;;;19.17;9.77;;;-5.30;99.90;;;;;;4971662;28;20264;-73
2022/12/12 05:43:29;;;;;;;17.45;9.85;;;-5.30;99.90;;;;;;4971497;28;20181;-73
2022/12/12 05:45:55;;;;;;;18.23;10.53;;;-5.30;99.90;;;;;;4989273;28;20208;-73
2022/12/12 05:48:20;;;;;;;15.60;9.23;;;-5.30;99.90;;;;;;4989045;28;20208;-73
2022/12/12 05:50:46;;;;;;;20.97;11.20;;;-5.40;99.90;;;;;;4971598;28;20186;-73
2022/12/12 05:53:12;;;;;;;21.50;10.90;;;-5.30;99.90;;;;;;4971480;28;20223;-73
2022/12/12 05:55:37;;;;;;;21.63;10.57;;;-5.30;99.90;;;;;;4988899;28;20181;-73
2022/12/12 05:58:03;;;;;;;20.93;11.80;;;-5.20;99.90;;;;;;4971080;28;20195;-73
2022/12/12 06:00:29;;;;;;;16.33;9.20;;;-5.10;99.90;;;;;;4988647;28;20273;-73
2022/12/12 06:02:54;;;;;;;21.23;10.97;;;-5.00;99.90;;;;;;4971298;28;20255;-73
2022/12/12 06:05:20;;;;;;;19.00;10.57;;;-4.80;99.90;;;;;;4988769;28;20282;-73
2022/12/12 06:07:46;;;;;;;19.80;10.17;;;-4.70;99.90;;;;;;4988440;28;20186;-73
2022/12/12 06:10:12;;;;;;;17.53;10.70;;;-4.60;99.90;;;;;;4971060;28;20945;-73
2022/12/12 06:12:38;;;;;;;15.85;9.75;;;-4.60;99.90;;;;;;4989503;28;20215;-73
2022/12/12 06:15:04;;;;;;;18.47;9.93;;;-4.60;99.90;;;;;;4992744;28;20190;-73
2022/12/12 06:17:29;;;;;;;20.95;11.45;;;-4.60;99.90;;;;;;4992540;28;20193;-73
2022/12/12 06:19:55;;;;;;;25.53;13.40;;;-4.50;99.90;;;;;;4974796;28;20240;-73
2022/12/12 06:22:21;;;;;;;26.03;14.60;;;-4.50;99.90;;;;;;4974866;28;20276;-73
2022/12/12 06:24:46;;;;;;;18.03;11.63;;;-4.50;99.90;;;;;;4974997;28;20184;-73
2022/12/12 06:27:12;;;;;;;22.40;12.70;;;-4.40;99.90;;;;;;4991970;28;20186;-73
2022/12/12 06:29:37;;;;;;;26.60;14.03;;;-4.50;99.90;;;;;;4992135;28;20271;-73
2022/12/12 06:32:03;;;;;;;29.27;15.23;;;-4.50;99.90;;;;;;4974622;28;20731;-73
2022/12/12 06:34:29;;;;;;;28.95;15.38;;;-4.50;99.90;;;;;;4992542;28;20181;-73
2022/12/12 06:36:55;;;;;;;28.40;13.47;;;-4.50;99.90;;;;;;4974516;28;20824;-73
2022/12/12 06:39:20;;;;;;;19.10;11.80;;;-4.50;99.90;;;;;;4992185;28;20609;-73
2022/12/12 06:41:46;;;;;;;18.03;10.80;;;-4.50;99.90;;;;;;4958105;28;20300;-73
2022/12/12 06:44:11;;;;;;;14.60;9.03;;;-4.50;99.90;;;;;;4974141;28;20199;-73
2022/12/12 06:46:38;;;;;;;19.70;11.03;;;-4.50;99.90;;;;;;4991722;28;20193;-73
2022/12/12 06:49:08;;;;;;;27.55;12.98;;;-4.30;99.90;;;;;;4991876;28;20584;-73
2022/12/12 06:51:37;;;;;;;19.02;11.40;;;-4.20;99.90;;;;;;4991570;28;20596;-73
2022/12/12 06:54:03;;;;;;;26.85;12.13;;;-4.10;99.90;;;;;;4991388;28;20237;-73
2022/12/12 06:56:29;;;;;;;20.83;11.95;;;-4.20;99.90;;;;;;4991437;28;20712;-73
2022/12/12 06:58:58;;;;;;;36.58;17.45;;;-4.20;99.90;;;;;;4991547;28;20579;-73
2022/12/12 07:01:24;;;;;;;30.73;14.50;;;-4.10;99.90;;;;;;4991105;28;20237;-73
2022/12/12 07:03:51;;;;;;;17.60;10.83;;;-4.10;99.90;;;;;;4991349;28;20272;-73
2022/12/12 07:06:18;;;;;;;21.70;11.63;;;-4.00;99.90;;;;;;4974159;28;20451;-73
2022/12/12 07:08:44;;;;;;;20.88;11.60;;;-3.90;99.90;;;;;;4992983;28;20676;-73
2022/12/12 07:11:13;;;;;;;13.50;8.43;;;-3.90;99.90;;;;;;4992293;28;20208;-73
2022/12/12 07:13:39;;;;;;;15.65;9.48;;;-3.90;99.90;;;;;;4991268;28;20360;-73
2022/12/12 07:16:05;;;;;;;21.73;12.90;;;-3.90;99.90;;;;;;4973982;28;20280;-73
2022/12/12 07:18:31;;;;;;;18.50;10.52;;;-3.80;99.90;;;;;;4990882;28;20436;-73
2022/12/12 07:20:57;;;;;;;19.17;11.90;;;-3.70;99.90;;;;;;4991109;28;20209;-73
2022/12/12 07:23:22;;;;;;;21.80;12.20;;;-3.70;99.90;;;;;;4990532;28;20268;-73
2022/12/12 07:25:48;;;;;;;22.53;12.70;;;-3.70;99.90;;;;;;4973490;28;20231;-73
2022/12/12 07:28:14;;;;;;;22.53;13.17;;;-3.70;99.90;;;;;;4990814;28;20182;-73
2022/12/12 07:30:43;;;;;;;25.80;13.40;;;-3.60;99.90;;;;;;4990678;28;20912;-73
2022/12/12 07:33:10;;;;;;;22.85;12.65;;;-3.70;99.90;;;;;;4990372;28;20296;-73
2022/12/12 07:35:35;;;;;;;24.83;14.13;;;-3.70;99.90;;;;;;4990512;28;20736;-73
2022/12/12 07:38:01;;;;;;;29.23;16.03;;;-3.60;99.90;;;;;;4973112;28;20255;-73
2022/12/12 07:40:27;;;;;;;26.30;14.55;;;-3.60;99.90;;;;;;4956804;28;20202;-73
2022/12/12 07:42:53;;;;;;;27.13;14.73;;;-3.60;99.90;;;;;;4990227;28;20314;-73
2022/12/12 07:45:18;;;;;;;32.00;18.60;;;-3.70;99.90;;;;;;4972451;28;20693;-73
2022/12/12 07:47:45;;;;;;;27.10;14.30;;;-3.60;99.90;;;;;;4990079;28;20181;-73
2022/12/12 07:50:10;;;;;;;25.63;14.40;;;-3.60;99.90;;;;;;4990094;28;20269;-73
2022/12/12 07:52:36;;;;;;;27.77;13.60;;;-3.60;99.90;;;;;;4990057;28;20289;-73
2022/12/12 07:55:03;;;;;;;22.33;12.73;;;-3.60;99.90;;;;;;4989781;28;20206;-73
2022/12/12 07:57:29;;;;;;;32.40;15.63;;;-3.60;99.90;;;;;;4989890;28;20420;-73
2022/12/12 07:59:56;;;;;;;29.23;15.07;;;-3.50;99.90;;;;;;4990076;28;20189;-73
2022/12/12 08:02:21;;;;;;;25.77;14.93;;;-3.50;99.90;;;;;;4989947;28;20221;-73
2022/12/12 08:04:47;;;;;;;31.37;16.27;;;-3.40;99.90;;;;;;4989964;28;20653;-73
2022/12/12 08:07:13;;;;;;;25.53;13.87;;;-3.40;99.90;;;;;;4989817;28;20190;-73
2022/12/12 08:09:39;;;;;;;23.90;14.17;;;-3.40;99.90;;;;;;4989788;28;20189;-73
2022/12/12 08:12:05;;;;;;;26.40;14.13;;;-3.30;99.90;;;;;;4989845;28;20756;-73
2022/12/12 08:14:31;;;;;;;25.13;14.20;;;-3.30;99.90;;;;;;4989828;28;20527;-73
2022/12/12 08:16:57;;;;;;;28.80;14.43;;;-3.30;99.90;;;;;;4971838;28;20272;-73
2022/12/12 08:19:23;;;;;;;24.85;12.77;;;-3.30;99.90;;;;;;4989675;28;20605;-73
2022/12/12 08:21:48;;;;;;;26.70;13.67;;;-3.30;99.90;;;;;;4971962;28;20206;-74
2022/12/12 08:24:14;;;;;;;27.53;13.13;;;-3.20;99.90;;;;;;4989583;28;20261;-73
2022/12/12 08:26:42;;;;;;;20.83;13.38;;;-3.20;99.90;;;;;;4989435;28;20586;-73
2022/12/12 08:29:08;;;;;;;20.85;12.18;;;-3.20;99.90;;;;;;4989350;28;20291;-73
2022/12/12 08:31:35;;;;;;;20.52;11.05;;;-3.20;99.90;;;;;;4989041;28;20213;-73
2022/12/12 08:34:01;;;;;;;19.40;11.40;;;-3.10;99.90;;;;;;4989235;28;20256;-74
2022/12/12 08:36:29;;;;;;;26.27;14.63;;;-3.00;99.90;;;;;;4988284;28;20193;-73
2022/12/12 08:38:56;;;;;;;20.95;12.55;;;-3.00;99.90;;;;;;4971658;28;20572;-73
2022/12/12 08:41:22;;;;;;;27.75;14.40;;;-2.90;99.90;;;;;;4988832;28;20316;-73
2022/12/12 08:43:48;;;;;;;26.23;14.53;;;-2.90;99.90;;;;;;4971487;28;20204;-73
2022/12/12 08:46:16;;;;;;;21.65;13.48;;;-2.80;99.90;;;;;;4989377;28;20426;-74
2022/12/12 08:48:42;;;;;;;22.63;12.82;;;-2.90;99.90;;;;;;4989354;28;20625;-73
2022/12/12 08:51:07;;;;;;;22.97;13.90;;;-3.00;99.90;;;;;;4989259;28;20277;-73
2022/12/12 08:53:33;;;;;;;22.80;13.30;;;-2.90;99.90;;;;;;4955794;28;20495;-74
2022/12/12 08:55:59;;;;;;;26.33;15.10;;;-2.90;99.90;;;;;;4989380;28;20660;-74
2022/12/12 08:58:24;;;;;;;22.33;12.67;;;-2.80;99.90;;;;;;4971842;28;20178;-73
2022/12/12 09:00:50;;;;;;;26.40;14.03;;;-2.70;99.90;;;;;;4971876;28;20307;-73
2022/12/12 09:03:17;;;;;;;24.50;14.20;;;-2.60;99.90;;;;;;4989325;28;20508;-73
2022/12/12 09:05:46;;;;;;;29.55;16.55;;;-2.60;99.90;;;;;;4972086;28;20188;-73
2022/12/12 09:08:12;;;;;;;27.73;14.57;;;-2.50;99.90;;;;;;4989551;28;20181;-73
2022/12/12 09:10:39;;;;;;;25.40;13.50;;;-2.40;99.90;;;;;;4989465;28;20178;-74
2022/12/12 09:13:08;;;;;;;28.58;16.00;;;-2.20;99.90;;;;;;4989369;28;20193;-73
2022/12/12 09:15:34;;;;;;;28.33;14.70;;;-2.10;99.90;;;;;;4989009;28;20213;-73
2022/12/12 09:18:00;;;;;;;24.92;14.13;;;-1.90;99.90;;;;;;4971642;28;20192;-73
2022/12/12 09:20:26;;;;;;;26.93;14.93;;;-1.90;99.90;;;;;;4955146;28;20190;-73
2022/12/12 09:22:51;;;;;;;30.50;15.47;;;-1.90;99.90;;;;;;4988770;28;20228;-74
2022/12/12 09:25:18;;;;;;;25.83;14.60;;;-1.90;99.90;;;;;;4955551;28;20189;-73
2022/12/12 09:27:43;;;;;;;37.08;17.27;;;-1.80;99.90;;;;;;4971263;28;20185;-73
2022/12/12 09:30:09;;;;;;;24.27;13.90;;;-1.80;99.90;;;;;;4989811;28;20228;-73
2022/12/12 09:32:35;;;;;;;45.05;19.73;;;-1.70;99.90;;;;;;4988432;28;20308;-74
2022/12/12 09:35:01;;;;;;;29.90;16.00;;;-1.70;99.90;;;;;;4988298;28;20290;-74
2022/12/12 09:37:27;;;;;;;28.43;15.70;;;-1.60;99.90;;;;;;4970520;28;20685;-74
2022/12/12 09:39:54;;;;;;;27.92;14.75;;;-1.60;99.90;;;;;;4988310;28;20299;-74
2022/12/12 09:42:27;;;;;;;25.27;15.03;;;-1.60;99.90;;;;;;4938826;28;20257;-73
2022/12/12 09:44:57;;;;;;;37.97;17.05;;;-1.60;99.90;;;;;;4988722;28;20232;-74
2022/12/12 09:47:40;;;;;;;101.32;29.85;;;-1.70;99.90;;;;;;4971612;28;20214;-73
2022/12/12 09:50:42;;;;;;;485.52;112.88;;;-1.60;99.90;;;;;;4973542;28;20204;-74
2022/12/12 09:53:15;;;;;;;28.40;15.80;;;-1.50;99.90;;;;;;4991827;28;20180;-74
2022/12/12 09:55:53;;;;;;;114.55;34.15;;;-1.50;99.90;;;;;;4991311;28;20216;-74
2022/12/12 09:58:54;;;;;;;24.92;14.27;;;-1.40;99.90;;;;;;4973938;28;20228;-74
2022/12/12 10:01:45;;;;;;;23.25;13.30;;;-1.40;99.90;;;;;;4990631;28;20201;-74
2022/12/12 10:04:37;;;;;;;22.55;12.93;;;-1.30;99.90;;;;;;4972589;28;20191;-74
2022/12/12 10:07:22;;;;;;;22.48;14.13;;;-1.30;99.90;;;;;;4990215;28;20178;-74
2022/12/12 10:10:19;;;;;;;26.27;15.15;;;-1.20;99.90;;;;;;4989046;28;20177;-74
2022/12/12 10:12:46;;;;;;;28.08;15.70;;;-1.10;99.90;;;;;;4987843;28;20205;-74
2022/12/12 10:15:35;;;;;;;29.55;15.88;;;-1.00;99.90;;;;;;4987804;28;20221;-74
2022/12/12 10:18:06;;;;;;;27.67;17.15;;;-0.90;99.90;;;;;;4987795;28;20181;-74
2022/12/12 10:20:36;;;;;;;34.90;18.35;;;-0.90;99.90;;;;;;4987639;28;20190;-74
2022/12/12 10:23:25;;;;;;;32.00;17.98;;;-0.90;99.90;;;;;;4987388;28;20845;-75
2022/12/12 10:26:01;;;;;;;30.58;16.25;;;-0.80;99.90;;;;;;4987802;28;20182;-74
2022/12/12 10:28:29;;;;;;;57.65;27.60;;;-0.70;99.90;;;;;;4987833;28;20181;-74
2022/12/12 10:31:19;;;;;;;37.70;18.52;;;-0.20;99.90;;;;;;4970209;28;20224;-74
2022/12/12 10:33:58;;;;;;;85.32;41.25;;;0.40;99.90;;;;;;4987458;28;20308;-74
2022/12/12 10:36:46;;;;;;;32.92;18.08;;;1.30;99.90;;;;;;4969754;28;20664;-74
2022/12/12 10:39:42;;;;;;;24.92;13.50;;;2.50;99.90;;;;;;4987431;28;20225;-74
2022/12/12 10:42:31;;;;;;;14.10;8.35;;;3.80;99.90;;;;;;4987109;28;20329;-74
2022/12/12 10:45:21;;;;;;;28.50;11.80;;;4.90;99.40;;;;;;4987306;28;20175;-74
2022/12/12 10:47:46;;;;;;;23.27;15.18;;;5.30;95.60;;;;;;4987390;28;20186;-75
2022/12/12 10:50:21;;;;;;;15.20;9.53;;;5.90;94.50;;;;;;4987530;28;20187;-75
2022/12/12 10:52:47;;;;;;;19.48;7.68;;;5.90;90.90;;;;;;4969674;28;20988;-75
2022/12/12 10:55:42;;;;;;;11.37;7.20;;;4.80;83.60;;;;;;4953384;28;20199;-75
2022/12/12 10:58:07;;;;;;;14.02;9.02;;;5.20;83.80;;;;;;4978135;28;20446;-75
2022/12/12 11:00:36;;;;;;;12.83;8.43;;;4.80;87.60;;;;;;4973344;28;20193;-75
2022/12/12 11:03:13;;;;;;;10.67;7.10;;;4.50;88.00;;;;;;4972825;28;20210;-75
2022/12/12 11:05:40;;;;;;;10.27;7.07;;;5.40;85.10;;;;;;4991001;28;20470;-75
2022/12/12 11:08:27;;;;;;;11.27;7.03;;;5.70;85.20;;;;;;4990739;28;20505;-75
2022/12/12 11:10:59;;;;;;;9.17;5.90;;;6.70;78.60;;;;;;4990708;28;21104;-75
2022/12/12 11:13:25;;;;;;;9.37;5.77;;;6.90;76.00;;;;;;4972712;28;20483;-75
2022/12/12 11:16:06;;;;;;;9.17;6.50;;;6.90;75.70;;;;;;4972671;28;20840;-75
2022/12/12 11:18:31;;;;;;;9.23;5.80;;;7.20;75.90;;;;;;4990467;28;20515;-75
2022/12/12 11:21:10;;;;;;;8.60;5.90;;;7.10;71.90;;;;;;4990536;28;20536;-75
2022/12/12 11:23:40;;;;;;;15.53;9.37;;;7.40;72.80;;;;;;4990872;28;20185;-75
2022/12/12 11:26:16;;;;;;;10.67;6.80;;;7.20;71.40;;;;;;4990444;28;20498;-75
2022/12/12 11:28:45;;;;;;;10.10;7.30;;;6.90;73.70;;;;;;4972933;28;20408;-75
2022/12/12 11:31:15;;;;;;;9.93;6.87;;;6.50;74.80;;;;;;4972522;28;20460;-75
2022/12/12 11:33:55;;;;;;;18.60;10.70;;;6.30;74.70;;;;;;4990106;28;20441;-75
2022/12/12 11:36:31;;;;;;;21.23;13.17;;;5.80;78.90;;;;;;4973083;28;20527;-75
2022/12/12 11:38:59;;;;;;;24.83;13.07;;;5.20;82.50;;;;;;4990201;28;20435;-75
2022/12/12 11:41:25;;;;;;;22.00;13.80;;;4.30;88.30;;;;;;4990299;28;20811;-75
2022/12/12 11:43:52;;;;;;;23.93;13.47;;;4.00;90.50;;;;;;4972305;28;20421;-75
2022/12/12 11:46:30;;;;;;;25.10;13.03;;;4.00;90.90;;;;;;4990618;28;20182;-75
2022/12/12 11:49:01;;;;;;;19.77;12.50;;;3.70;91.70;;;;;;4990034;28;20942;-75
2022/12/12 11:51:39;;;;;;;23.13;13.48;;;3.30;92.50;;;;;;4991082;28;20841;-75
2022/12/12 11:54:13;;;;;;;22.13;13.23;;;3.00;93.80;;;;;;4990169;28;20258;-76
2022/12/12 11:57:04;;;;;;;22.73;12.80;;;2.90;94.30;;;;;;4989856;28;20192;-75
2022/12/12 12:00:08;;;;;;;18.73;11.75;;;2.60;94.90;;;;;;4989512;28;20888;-75
2022/12/12 12:02:55;;;;;;;17.10;11.20;;;2.60;93.70;;;;;;4989582;28;20769;-75
2022/12/12 12:05:57;;;;;;;24.02;13.32;;;2.40;94.20;;;;;;4989721;28;20625;-75
2022/12/12 12:08:48;;;;;;;21.75;12.30;;;2.30;95.00;;;;;;4971869;28;20214;-76
2022/12/12 12:11:22;;;;;;;22.88;11.60;;;2.10;95.10;;;;;;4970992;28;20289;-77
2022/12/12 12:14:20;;;;;;;20.80;12.23;;;2.00;96.00;;;;;;4991029;28;20265;-77
2022/12/12 12:17:10;;;;;;;20.88;12.52;;;1.80;96.70;;;;;;4990519;28;20293;-77
2022/12/12 12:19:52;;;;;;;20.70;12.27;;;1.60;98.40;;;;;;4989474;28;20552;-77
2022/12/12 12:22:27;;;;;;;22.38;12.95;;;1.40;98.50;;;;;;4971333;28;20653;-77
2022/12/12 12:25:21;;;;;;;17.70;11.25;;;1.30;99.60;;;;;;4989375;28;20179;-77
2022/12/12 12:28:05;;;;;;;25.13;12.60;;;1.10;99.90;;;;;;4971397;28;20274;-77
2022/12/12 12:31:07;;;;;;;19.73;12.45;;;1.00;99.90;;;;;;4989108;28;20493;-77
2022/12/12 12:34:00;;;;;;;26.48;13.80;;;0.90;99.90;;;;;;4986221;28;20209;-77
2022/12/12 12:36:35;;;;;;;24.02;12.93;;;0.80;99.90;;;;;;4971454;28;20655;-77
2022/12/12 12:39:14;;;;;;;19.45;12.10;;;0.70;99.90;;;;;;4988930;28;20177;-77
2022/12/12 12:41:56;;;;;;;25.23;13.32;;;0.70;99.90;;;;;;4971154;28;20227;-77
2022/12/12 12:44:50;;;;;;;20.70;11.63;;;0.60;99.90;;;;;;4989171;28;20188;-77
2022/12/12 12:47:21;;;;;;;21.13;11.75;;;0.70;99.90;;;;;;4988423;28;20195;-77
2022/12/12 12:50:01;;;;;;;26.50;13.02;;;0.70;99.90;;;;;;4988879;28;20237;-77
2022/12/12 12:52:40;;;;;;;18.33;12.00;;;0.60;99.90;;;;;;4971146;28;20206;-77
2022/12/12 12:55:15;;;;;;;17.88;11.65;;;0.50;99.90;;;;;;4988885;28;20185;-77
2022/12/12 12:57:43;;;;;;;19.48;12.25;;;0.60;99.90;;;;;;4988835;28;20178;-76
2022/12/12 13:00:16;;;;;;;20.90;12.68;;;0.50;99.90;;;;;;4971040;28;20332;-76
2022/12/12 13:03:06;;;;;;;20.48;12.85;;;0.50;99.90;;;;;;4988317;28;20224;-76
2022/12/12 13:05:56;;;;;;;19.58;11.98;;;0.60;99.90;;;;;;4970946;28;20193;-76
2022/12/12 13:08:46;;;;;;;22.17;12.25;;;0.90;99.90;;;;;;4954786;28;20229;-77
2022/12/12 13:11:19;;;;;;;22.02;12.60;;;0.90;99.90;;;;;;4970632;28;20245;-77